sensor_id;sensor_type;location;lat;lon;timestamp;P1;durP1;ratioP1;P2;durP2;ratioP2
20251;SDS011;10284;58.364;15.550;2023-03-03T00:01:06;1.55;;;0.60;;
20251;SDS011;10284;58.364;15.550;2023-03-03T00:03:32;2.08;;;0.85;;
20251;SDS011;10284;58.364;15.550;2023-03-03T00:05:57;1.15;;;0.82;;
20251;SDS011;10284;58.364;15.550;2023-03-03T00:08:23;0.77;;;0.70;;
20251;SDS011;10284;58.364;15.550;2023-03-03T00:10:49;1.17;;;0.70;;
20251;SDS011;10284;58.364;15.550;2023-03-03T00:13:22;1.75;;;0.70;;
20251;SDS011;10284;58.364;15.550;2023-03-03T00:15:49;3.75;;;0.85;;
20251;SDS011;10284;58.364;15.550;2023-03-03T00:20:57;1.10;;;0.60;;
20251;SDS011;10284;58.364;15.550;2023-03-03T00:25:56;2.83;;;0.80;;
20251;SDS011;10284;58.364;15.550;2023-03-03T00:30:58;2.67;;;1.05;;
20251;SDS011;10284;58.364;15.550;2023-03-03T00:33:32;1.90;;;0.77;;
20251;SDS011;10284;58.364;15.550;2023-03-03T00:36:09;2.15;;;0.70;;
20251;SDS011;10284;58.364;15.550;2023-03-03T00:38:57;1.25;;;0.80;;
20251;SDS011;10284;58.364;15.550;2023-03-03T00:41:36;2.55;;;0.90;;
20251;SDS011;10284;58.364;15.550;2023-03-03T00:44:17;1.00;;;0.70;;
20251;SDS011;10284;58.364;15.550;2023-03-03T00:47:00;2.30;;;0.85;;
20251;SDS011;10284;58.364;15.550;2023-03-03T00:49:30;2.25;;;0.75;;
20251;SDS011;10284;58.364;15.550;2023-03-03T00:51:57;2.30;;;0.90;;
20251;SDS011;10284;58.364;15.550;2023-03-03T00:54:22;1.33;;;0.80;;
20251;SDS011;10284;58.364;15.550;2023-03-03T00:56:48;3.25;;;0.90;;
20251;SDS011;10284;58.364;15.550;2023-03-03T00:59:13;1.75;;;0.68;;
20251;SDS011;10284;58.364;15.550;2023-03-03T01:01:38;2.08;;;0.80;;
20251;SDS011;10284;58.364;15.550;2023-03-03T01:04:04;1.88;;;0.73;;
20251;SDS011;10284;58.364;15.550;2023-03-03T01:06:29;3.00;;;1.15;;
20251;SDS011;10284;58.364;15.550;2023-03-03T01:08:55;4.40;;;1.00;;
20251;SDS011;10284;58.364;15.550;2023-03-03T01:11:24;4.72;;;1.00;;
20251;SDS011;10284;58.364;15.550;2023-03-03T01:13:52;3.05;;;1.30;;
20251;SDS011;10284;58.364;15.550;2023-03-03T01:16:18;1.75;;;0.75;;
20251;SDS011;10284;58.364;15.550;2023-03-03T01:18:44;1.65;;;0.95;;
20251;SDS011;10284;58.364;15.550;2023-03-03T01:21:10;3.20;;;0.82;;
20251;SDS011;10284;58.364;15.550;2023-03-03T01:23:36;1.65;;;1.00;;
20251;SDS011;10284;58.364;15.550;2023-03-03T01:26:02;3.08;;;1.30;;
20251;SDS011;10284;58.364;15.550;2023-03-03T01:28:28;4.53;;;1.00;;
20251;SDS011;10284;58.364;15.550;2023-03-03T01:30:53;3.53;;;1.10;;
20251;SDS011;10284;58.364;15.550;2023-03-03T01:33:19;2.17;;;1.08;;
20251;SDS011;10284;58.364;15.550;2023-03-03T01:35:45;2.47;;;0.98;;
20251;SDS011;10284;58.364;15.550;2023-03-03T01:38:11;5.97;;;1.08;;
20251;SDS011;10284;58.364;15.550;2023-03-03T01:40:38;4.78;;;1.13;;
20251;SDS011;10284;58.364;15.550;2023-03-03T01:43:04;1.80;;;0.90;;
20251;SDS011;10284;58.364;15.550;2023-03-03T01:48:15;1.80;;;0.93;;
20251;SDS011;10284;58.364;15.550;2023-03-03T01:50:48;2.58;;;1.13;;
20251;SDS011;10284;58.364;15.550;2023-03-03T01:53:19;3.33;;;0.95;;
20251;SDS011;10284;58.364;15.550;2023-03-03T01:55:47;3.00;;;1.08;;
20251;SDS011;10284;58.364;15.550;2023-03-03T01:58:17;3.47;;;1.00;;
20251;SDS011;10284;58.364;15.550;2023-03-03T02:00:47;1.20;;;0.90;;
20251;SDS011;10284;58.364;15.550;2023-03-03T02:03:15;2.42;;;1.00;;
20251;SDS011;10284;58.364;15.550;2023-03-03T02:05:40;1.80;;;1.10;;
20251;SDS011;10284;58.364;15.550;2023-03-03T02:08:07;2.00;;;0.80;;
20251;SDS011;10284;58.364;15.550;2023-03-03T02:10:34;2.50;;;0.85;;
20251;SDS011;10284;58.364;15.550;2023-03-03T02:13:00;3.28;;;1.13;;
20251;SDS011;10284;58.364;15.550;2023-03-03T02:15:26;3.20;;;1.08;;
20251;SDS011;10284;58.364;15.550;2023-03-03T02:17:54;3.67;;;1.25;;
20251;SDS011;10284;58.364;15.550;2023-03-03T02:20:28;3.97;;;1.02;;
20251;SDS011;10284;58.364;15.550;2023-03-03T02:26:22;2.92;;;0.95;;
20251;SDS011;10284;58.364;15.550;2023-03-03T02:28:49;3.75;;;1.20;;
20251;SDS011;10284;58.364;15.550;2023-03-03T02:31:17;2.45;;;1.00;;
20251;SDS011;10284;58.364;15.550;2023-03-03T02:33:45;3.10;;;1.00;;
20251;SDS011;10284;58.364;15.550;2023-03-03T02:36:12;3.22;;;0.90;;
20251;SDS011;10284;58.364;15.550;2023-03-03T02:38:47;0.93;;;0.82;;
20251;SDS011;10284;58.364;15.550;2023-03-03T02:41:42;6.43;;;0.85;;
20251;SDS011;10284;58.364;15.550;2023-03-03T02:44:14;1.17;;;0.82;;
20251;SDS011;10284;58.364;15.550;2023-03-03T02:46:42;2.35;;;0.80;;
20251;SDS011;10284;58.364;15.550;2023-03-03T02:49:10;1.75;;;0.70;;
20251;SDS011;10284;58.364;15.550;2023-03-03T02:51:37;1.70;;;0.80;;
20251;SDS011;10284;58.364;15.550;2023-03-03T02:54:03;2.58;;;1.02;;
20251;SDS011;10284;58.364;15.550;2023-03-03T02:56:29;2.55;;;0.75;;
20251;SDS011;10284;58.364;15.550;2023-03-03T02:58:55;1.77;;;0.82;;
20251;SDS011;10284;58.364;15.550;2023-03-03T03:01:21;3.03;;;1.10;;
20251;SDS011;10284;58.364;15.550;2023-03-03T03:03:46;2.08;;;0.90;;
20251;SDS011;10284;58.364;15.550;2023-03-03T03:06:12;1.65;;;0.93;;
20251;SDS011;10284;58.364;15.550;2023-03-03T03:08:38;4.13;;;0.90;;
20251;SDS011;10284;58.364;15.550;2023-03-03T03:11:03;5.40;;;1.20;;
20251;SDS011;10284;58.364;15.550;2023-03-03T03:13:30;3.78;;;0.88;;
20251;SDS011;10284;58.364;15.550;2023-03-03T03:15:56;3.10;;;1.02;;
20251;SDS011;10284;58.364;15.550;2023-03-03T03:18:21;5.97;;;0.88;;
20251;SDS011;10284;58.364;15.550;2023-03-03T03:20:47;1.60;;;0.70;;
20251;SDS011;10284;58.364;15.550;2023-03-03T03:23:12;2.95;;;1.08;;
20251;SDS011;10284;58.364;15.550;2023-03-03T03:25:38;2.90;;;1.05;;
20251;SDS011;10284;58.364;15.550;2023-03-03T03:28:09;3.63;;;1.20;;
20251;SDS011;10284;58.364;15.550;2023-03-03T03:30:38;2.75;;;1.00;;
20251;SDS011;10284;58.364;15.550;2023-03-03T03:33:04;4.20;;;0.88;;
20251;SDS011;10284;58.364;15.550;2023-03-03T03:35:29;2.85;;;1.00;;
20251;SDS011;10284;58.364;15.550;2023-03-03T03:37:56;5.95;;;1.20;;
20251;SDS011;10284;58.364;15.550;2023-03-03T03:40:21;4.90;;;1.25;;
20251;SDS011;10284;58.364;15.550;2023-03-03T03:42:47;3.22;;;0.90;;
20251;SDS011;10284;58.364;15.550;2023-03-03T03:45:12;6.15;;;1.17;;
20251;SDS011;10284;58.364;15.550;2023-03-03T03:47:39;1.90;;;1.00;;
20251;SDS011;10284;58.364;15.550;2023-03-03T03:50:06;4.68;;;1.00;;
20251;SDS011;10284;58.364;15.550;2023-03-03T03:52:32;3.20;;;1.00;;
20251;SDS011;10284;58.364;15.550;2023-03-03T03:54:57;2.45;;;1.08;;
20251;SDS011;10284;58.364;15.550;2023-03-03T03:57:23;4.53;;;1.25;;
20251;SDS011;10284;58.364;15.550;2023-03-03T03:59:48;3.25;;;1.02;;
20251;SDS011;10284;58.364;15.550;2023-03-03T04:02:14;3.30;;;1.00;;
20251;SDS011;10284;58.364;15.550;2023-03-03T04:04:39;3.88;;;1.00;;
20251;SDS011;10284;58.364;15.550;2023-03-03T04:07:05;8.32;;;1.33;;
20251;SDS011;10284;58.364;15.550;2023-03-03T04:09:30;2.33;;;0.95;;
20251;SDS011;10284;58.364;15.550;2023-03-03T04:11:56;4.25;;;1.58;;
20251;SDS011;10284;58.364;15.550;2023-03-03T04:14:21;3.10;;;0.88;;
20251;SDS011;10284;58.364;15.550;2023-03-03T04:16:47;2.88;;;1.17;;
20251;SDS011;10284;58.364;15.550;2023-03-03T04:19:12;5.93;;;1.10;;
20251;SDS011;10284;58.364;15.550;2023-03-03T04:21:37;6.82;;;1.05;;
20251;SDS011;10284;58.364;15.550;2023-03-03T04:24:03;3.63;;;1.00;;
20251;SDS011;10284;58.364;15.550;2023-03-03T04:26:29;5.53;;;1.33;;
20251;SDS011;10284;58.364;15.550;2023-03-03T04:28:55;1.73;;;0.93;;
20251;SDS011;10284;58.364;15.550;2023-03-03T04:31:21;4.13;;;0.98;;
20251;SDS011;10284;58.364;15.550;2023-03-03T04:33:47;5.00;;;1.33;;
20251;SDS011;10284;58.364;15.550;2023-03-03T04:36:12;6.40;;;1.25;;
20251;SDS011;10284;58.364;15.550;2023-03-03T04:38:38;6.05;;;1.10;;
20251;SDS011;10284;58.364;15.550;2023-03-03T04:41:04;3.10;;;1.30;;
20251;SDS011;10284;58.364;15.550;2023-03-03T04:43:29;4.07;;;1.30;;
20251;SDS011;10284;58.364;15.550;2023-03-03T04:45:54;7.50;;;1.40;;
20251;SDS011;10284;58.364;15.550;2023-03-03T04:48:20;2.75;;;1.10;;
20251;SDS011;10284;58.364;15.550;2023-03-03T04:50:45;4.35;;;1.45;;
20251;SDS011;10284;58.364;15.550;2023-03-03T04:53:11;10.00;;;1.20;;
20251;SDS011;10284;58.364;15.550;2023-03-03T04:55:36;6.10;;;0.90;;
20251;SDS011;10284;58.364;15.550;2023-03-03T04:58:02;5.85;;;1.27;;
20251;SDS011;10284;58.364;15.550;2023-03-03T05:00:28;3.75;;;1.17;;
20251;SDS011;10284;58.364;15.550;2023-03-03T05:02:54;3.72;;;1.15;;
20251;SDS011;10284;58.364;15.550;2023-03-03T05:05:19;3.38;;;1.15;;
20251;SDS011;10284;58.364;15.550;2023-03-03T05:07:44;5.32;;;1.30;;
20251;SDS011;10284;58.364;15.550;2023-03-03T05:10:10;5.38;;;1.13;;
20251;SDS011;10284;58.364;15.550;2023-03-03T05:12:36;7.07;;;1.08;;
20251;SDS011;10284;58.364;15.550;2023-03-03T05:15:01;4.93;;;1.25;;
20251;SDS011;10284;58.364;15.550;2023-03-03T05:17:27;4.15;;;0.95;;
20251;SDS011;10284;58.364;15.550;2023-03-03T05:19:53;4.88;;;1.10;;
20251;SDS011;10284;58.364;15.550;2023-03-03T05:22:21;5.00;;;1.30;;
20251;SDS011;10284;58.364;15.550;2023-03-03T05:24:47;4.93;;;1.20;;
20251;SDS011;10284;58.364;15.550;2023-03-03T05:27:13;4.95;;;1.50;;
20251;SDS011;10284;58.364;15.550;2023-03-03T05:29:39;4.13;;;1.20;;
20251;SDS011;10284;58.364;15.550;2023-03-03T05:32:05;1.30;;;0.88;;
20251;SDS011;10284;58.364;15.550;2023-03-03T05:34:30;3.60;;;1.00;;
20251;SDS011;10284;58.364;15.550;2023-03-03T05:36:56;7.60;;;1.40;;
20251;SDS011;10284;58.364;15.550;2023-03-03T05:39:21;4.22;;;1.17;;
20251;SDS011;10284;58.364;15.550;2023-03-03T05:41:47;7.60;;;1.27;;
20251;SDS011;10284;58.364;15.550;2023-03-03T05:44:13;5.20;;;1.10;;
20251;SDS011;10284;58.364;15.550;2023-03-03T05:46:38;7.03;;;1.17;;
20251;SDS011;10284;58.364;15.550;2023-03-03T05:49:04;5.60;;;1.30;;
20251;SDS011;10284;58.364;15.550;2023-03-03T05:51:29;3.75;;;1.10;;
20251;SDS011;10284;58.364;15.550;2023-03-03T05:53:55;6.10;;;1.08;;
20251;SDS011;10284;58.364;15.550;2023-03-03T05:56:20;4.18;;;1.27;;
20251;SDS011;10284;58.364;15.550;2023-03-03T05:58:45;2.95;;;1.05;;
20251;SDS011;10284;58.364;15.550;2023-03-03T06:01:11;3.20;;;0.90;;
20251;SDS011;10284;58.364;15.550;2023-03-03T06:03:36;3.80;;;1.10;;
20251;SDS011;10284;58.364;15.550;2023-03-03T06:06:02;3.90;;;1.00;;
20251;SDS011;10284;58.364;15.550;2023-03-03T06:08:27;5.93;;;1.40;;
20251;SDS011;10284;58.364;15.550;2023-03-03T06:10:53;6.95;;;1.42;;
20251;SDS011;10284;58.364;15.550;2023-03-03T06:13:19;8.15;;;1.63;;
20251;SDS011;10284;58.364;15.550;2023-03-03T06:15:44;5.40;;;1.70;;
20251;SDS011;10284;58.364;15.550;2023-03-03T06:18:10;5.80;;;1.13;;
20251;SDS011;10284;58.364;15.550;2023-03-03T06:20:35;6.13;;;1.30;;
20251;SDS011;10284;58.364;15.550;2023-03-03T06:23:02;5.50;;;1.40;;
20251;SDS011;10284;58.364;15.550;2023-03-03T06:25:28;6.10;;;2.42;;
20251;SDS011;10284;58.364;15.550;2023-03-03T06:27:53;4.40;;;1.77;;
20251;SDS011;10284;58.364;15.550;2023-03-03T06:30:18;9.80;;;2.53;;
20251;SDS011;10284;58.364;15.550;2023-03-03T06:32:44;7.22;;;2.20;;
20251;SDS011;10284;58.364;15.550;2023-03-03T06:35:10;9.82;;;2.03;;
20251;SDS011;10284;58.364;15.550;2023-03-03T06:37:35;8.80;;;1.73;;
20251;SDS011;10284;58.364;15.550;2023-03-03T06:40:01;5.68;;;1.88;;
20251;SDS011;10284;58.364;15.550;2023-03-03T06:42:27;5.90;;;1.70;;
20251;SDS011;10284;58.364;15.550;2023-03-03T06:44:53;6.95;;;1.40;;
20251;SDS011;10284;58.364;15.550;2023-03-03T06:47:18;4.97;;;1.20;;
20251;SDS011;10284;58.364;15.550;2023-03-03T06:49:44;7.70;;;1.60;;
20251;SDS011;10284;58.364;15.550;2023-03-03T06:52:23;5.85;;;1.30;;
20251;SDS011;10284;58.364;15.550;2023-03-03T06:54:51;7.35;;;1.30;;
20251;SDS011;10284;58.364;15.550;2023-03-03T06:57:24;2.45;;;1.10;;
20251;SDS011;10284;58.364;15.550;2023-03-03T07:02:46;8.13;;;1.55;;
20251;SDS011;10284;58.364;15.550;2023-03-03T07:05:27;7.47;;;1.75;;
20251;SDS011;10284;58.364;15.550;2023-03-03T07:07:54;9.48;;;1.45;;
20251;SDS011;10284;58.364;15.550;2023-03-03T07:10:22;5.88;;;1.33;;
20251;SDS011;10284;58.364;15.550;2023-03-03T07:12:49;7.88;;;1.13;;
20251;SDS011;10284;58.364;15.550;2023-03-03T07:15:16;5.72;;;1.50;;
20251;SDS011;10284;58.364;15.550;2023-03-03T07:17:45;6.28;;;1.40;;
20251;SDS011;10284;58.364;15.550;2023-03-03T07:20:15;6.53;;;1.40;;
20251;SDS011;10284;58.364;15.550;2023-03-03T07:22:44;6.05;;;1.20;;
20251;SDS011;10284;58.364;15.550;2023-03-03T07:25:31;12.45;;;1.50;;
20251;SDS011;10284;58.364;15.550;2023-03-03T07:28:09;5.22;;;1.25;;
20251;SDS011;10284;58.364;15.550;2023-03-03T07:30:39;5.13;;;1.50;;
20251;SDS011;10284;58.364;15.550;2023-03-03T07:33:07;4.55;;;1.13;;
20251;SDS011;10284;58.364;15.550;2023-03-03T07:35:56;5.38;;;1.30;;
20251;SDS011;10284;58.364;15.550;2023-03-03T07:41:11;5.82;;;1.33;;
20251;SDS011;10284;58.364;15.550;2023-03-03T07:43:53;5.68;;;1.10;;
20251;SDS011;10284;58.364;15.550;2023-03-03T07:49:14;5.47;;;1.52;;
20251;SDS011;10284;58.364;15.550;2023-03-03T07:51:46;4.57;;;1.10;;
20251;SDS011;10284;58.364;15.550;2023-03-03T07:57:06;6.35;;;2.00;;
20251;SDS011;10284;58.364;15.550;2023-03-03T07:59:37;5.70;;;1.35;;
20251;SDS011;10284;58.364;15.550;2023-03-03T08:02:11;6.18;;;1.60;;
20251;SDS011;10284;58.364;15.550;2023-03-03T08:04:48;5.90;;;1.15;;
20251;SDS011;10284;58.364;15.550;2023-03-03T08:07:16;4.38;;;1.48;;
20251;SDS011;10284;58.364;15.550;2023-03-03T08:09:58;3.45;;;0.90;;
20251;SDS011;10284;58.364;15.550;2023-03-03T08:12:40;4.45;;;1.38;;
20251;SDS011;10284;58.364;15.550;2023-03-03T08:15:19;12.75;;;2.03;;
20251;SDS011;10284;58.364;15.550;2023-03-03T08:17:47;6.85;;;1.85;;
20251;SDS011;10284;58.364;15.550;2023-03-03T08:23:09;5.35;;;1.88;;
20251;SDS011;10284;58.364;15.550;2023-03-03T08:25:35;4.28;;;1.40;;
20251;SDS011;10284;58.364;15.550;2023-03-03T08:28:00;4.00;;;1.30;;
20251;SDS011;10284;58.364;15.550;2023-03-03T08:30:25;5.18;;;1.27;;
20251;SDS011;10284;58.364;15.550;2023-03-03T08:32:51;4.55;;;1.50;;
20251;SDS011;10284;58.364;15.550;2023-03-03T08:35:16;6.35;;;1.27;;
20251;SDS011;10284;58.364;15.550;2023-03-03T08:37:42;3.72;;;1.10;;
20251;SDS011;10284;58.364;15.550;2023-03-03T08:40:07;4.47;;;1.20;;
20251;SDS011;10284;58.364;15.550;2023-03-03T08:42:33;7.50;;;1.30;;
20251;SDS011;10284;58.364;15.550;2023-03-03T08:44:59;4.72;;;1.33;;
20251;SDS011;10284;58.364;15.550;2023-03-03T08:47:24;3.08;;;1.42;;
20251;SDS011;10284;58.364;15.550;2023-03-03T08:49:50;2.55;;;0.88;;
20251;SDS011;10284;58.364;15.550;2023-03-03T08:52:15;3.63;;;1.00;;
20251;SDS011;10284;58.364;15.550;2023-03-03T08:54:41;2.58;;;1.08;;
20251;SDS011;10284;58.364;15.550;2023-03-03T08:57:06;5.43;;;1.13;;
20251;SDS011;10284;58.364;15.550;2023-03-03T08:59:32;5.10;;;1.50;;
20251;SDS011;10284;58.364;15.550;2023-03-03T09:02:01;6.75;;;1.40;;
20251;SDS011;10284;58.364;15.550;2023-03-03T09:04:27;6.90;;;1.63;;
20251;SDS011;10284;58.364;15.550;2023-03-03T09:06:52;6.57;;;1.38;;
20251;SDS011;10284;58.364;15.550;2023-03-03T09:09:18;3.58;;;1.08;;
20251;SDS011;10284;58.364;15.550;2023-03-03T09:11:43;4.63;;;1.10;;
20251;SDS011;10284;58.364;15.550;2023-03-03T09:14:16;9.45;;;1.27;;
20251;SDS011;10284;58.364;15.550;2023-03-03T09:16:51;5.65;;;1.45;;
20251;SDS011;10284;58.364;15.550;2023-03-03T09:19:20;3.38;;;1.10;;
20251;SDS011;10284;58.364;15.550;2023-03-03T09:21:51;4.47;;;1.25;;
20251;SDS011;10284;58.364;15.550;2023-03-03T09:24:24;3.47;;;1.20;;
20251;SDS011;10284;58.364;15.550;2023-03-03T09:26:53;4.93;;;0.98;;
20251;SDS011;10284;58.364;15.550;2023-03-03T09:29:27;9.60;;;1.27;;
20251;SDS011;10284;58.364;15.550;2023-03-03T09:31:54;6.03;;;1.25;;
20251;SDS011;10284;58.364;15.550;2023-03-03T09:36:59;3.80;;;1.00;;
20251;SDS011;10284;58.364;15.550;2023-03-03T09:39:26;4.45;;;1.08;;
20251;SDS011;10284;58.364;15.550;2023-03-03T09:42:01;5.18;;;1.13;;
20251;SDS011;10284;58.364;15.550;2023-03-03T09:47:27;3.30;;;1.00;;
20251;SDS011;10284;58.364;15.550;2023-03-03T09:50:48;5.90;;;0.95;;
20251;SDS011;10284;58.364;15.550;2023-03-03T09:56:18;6.70;;;1.00;;
20251;SDS011;10284;58.364;15.550;2023-03-03T10:09:39;3.00;;;0.80;;
20251;SDS011;10284;58.364;15.550;2023-03-03T10:17:28;2.97;;;1.05;;
20251;SDS011;10284;58.364;15.550;2023-03-03T10:20:16;3.50;;;0.90;;
20251;SDS011;10284;58.364;15.550;2023-03-03T10:25:20;3.50;;;0.80;;
20251;SDS011;10284;58.364;15.550;2023-03-03T10:39:10;2.67;;;0.90;;
20251;SDS011;10284;58.364;15.550;2023-03-03T10:44:45;3.00;;;0.80;;
20251;SDS011;10284;58.364;15.550;2023-03-03T10:50:11;3.70;;;0.95;;
20251;SDS011;10284;58.364;15.550;2023-03-03T10:52:52;3.63;;;0.90;;
20251;SDS011;10284;58.364;15.550;2023-03-03T11:03:45;4.43;;;1.00;;
20251;SDS011;10284;58.364;15.550;2023-03-03T11:06:25;5.57;;;1.25;;
20251;SDS011;10284;58.364;15.550;2023-03-03T11:09:04;3.80;;;0.77;;
20251;SDS011;10284;58.364;15.550;2023-03-03T11:11:38;1.45;;;0.68;;
20251;SDS011;10284;58.364;15.550;2023-03-03T11:14:20;2.53;;;0.80;;
20251;SDS011;10284;58.364;15.550;2023-03-03T11:16:59;3.60;;;0.80;;
20251;SDS011;10284;58.364;15.550;2023-03-03T11:22:38;4.30;;;1.00;;
20251;SDS011;10284;58.364;15.550;2023-03-03T11:25:23;2.80;;;1.05;;
20251;SDS011;10284;58.364;15.550;2023-03-03T11:35:46;1.83;;;0.80;;
20251;SDS011;10284;58.364;15.550;2023-03-03T11:41:06;2.42;;;0.75;;
20251;SDS011;10284;58.364;15.550;2023-03-03T11:43:38;2.47;;;0.80;;
20251;SDS011;10284;58.364;15.550;2023-03-03T11:46:08;4.53;;;0.90;;
20251;SDS011;10284;58.364;15.550;2023-03-03T11:48:59;4.00;;;1.33;;
20251;SDS011;10284;58.364;15.550;2023-03-03T12:02:56;4.03;;;0.80;;
20251;SDS011;10284;58.364;15.550;2023-03-03T12:05:45;3.40;;;0.63;;
20251;SDS011;10284;58.364;15.550;2023-03-03T12:16:55;3.28;;;0.90;;
20251;SDS011;10284;58.364;15.550;2023-03-03T12:22:10;3.70;;;0.60;;
20251;SDS011;10284;58.364;15.550;2023-03-03T12:27:31;1.13;;;0.60;;
20251;SDS011;10284;58.364;15.550;2023-03-03T12:41:29;3.45;;;0.73;;
20251;SDS011;10284;58.364;15.550;2023-03-03T12:46:45;2.58;;;0.60;;
20251;SDS011;10284;58.364;15.550;2023-03-03T12:49:15;2.53;;;0.60;;
20251;SDS011;10284;58.364;15.550;2023-03-03T12:56:44;1.60;;;0.50;;
20251;SDS011;10284;58.364;15.550;2023-03-03T13:07:42;1.42;;;0.50;;
20251;SDS011;10284;58.364;15.550;2023-03-03T13:21:53;1.52;;;0.60;;
20251;SDS011;10284;58.364;15.550;2023-03-03T13:32:22;1.02;;;0.73;;
20251;SDS011;10284;58.364;15.550;2023-03-03T13:34:53;0.68;;;0.52;;
20251;SDS011;10284;58.364;15.550;2023-03-03T13:37:29;0.55;;;0.45;;
20251;SDS011;10284;58.364;15.550;2023-03-03T13:39:58;1.13;;;0.57;;
20251;SDS011;10284;58.364;15.550;2023-03-03T13:45:02;3.35;;;0.57;;
20251;SDS011;10284;58.364;15.550;2023-03-03T13:50:11;1.63;;;0.67;;
20251;SDS011;10284;58.364;15.550;2023-03-03T13:52:48;0.90;;;0.40;;
20251;SDS011;10284;58.364;15.550;2023-03-03T13:57:58;0.50;;;0.50;;
20251;SDS011;10284;58.364;15.550;2023-03-03T14:00:35;1.45;;;0.60;;
20251;SDS011;10284;58.364;15.550;2023-03-03T14:06:00;1.45;;;0.80;;
20251;SDS011;10284;58.364;15.550;2023-03-03T14:11:04;0.85;;;0.40;;
20251;SDS011;10284;58.364;15.550;2023-03-03T14:18:54;0.40;;;0.40;;
20251;SDS011;10284;58.364;15.550;2023-03-03T14:24:14;1.10;;;0.50;;
20251;SDS011;10284;58.364;15.550;2023-03-03T14:26:46;0.70;;;0.43;;
20251;SDS011;10284;58.364;15.550;2023-03-03T14:29:35;2.20;;;0.60;;
20251;SDS011;10284;58.364;15.550;2023-03-03T14:32:01;1.67;;;0.60;;
20251;SDS011;10284;58.364;15.550;2023-03-03T14:34:34;0.68;;;0.43;;
20251;SDS011;10284;58.364;15.550;2023-03-03T14:40:00;1.50;;;0.57;;
20251;SDS011;10284;58.364;15.550;2023-03-03T14:42:36;2.72;;;0.52;;
20251;SDS011;10284;58.364;15.550;2023-03-03T14:45:49;0.90;;;0.40;;
20251;SDS011;10284;58.364;15.550;2023-03-03T14:48:15;3.15;;;0.50;;
20251;SDS011;10284;58.364;15.550;2023-03-03T14:53:34;0.75;;;0.70;;
20251;SDS011;10284;58.364;15.550;2023-03-03T14:58:50;2.45;;;0.60;;
20251;SDS011;10284;58.364;15.550;2023-03-03T15:01:30;1.35;;;0.68;;
20251;SDS011;10284;58.364;15.550;2023-03-03T15:04:00;2.35;;;0.50;;
20251;SDS011;10284;58.364;15.550;2023-03-03T15:11:52;1.73;;;0.50;;
20251;SDS011;10284;58.364;15.550;2023-03-03T15:14:28;1.23;;;0.70;;
20251;SDS011;10284;58.364;15.550;2023-03-03T15:22:21;2.95;;;0.85;;
20251;SDS011;10284;58.364;15.550;2023-03-03T15:24:50;5.95;;;0.85;;
20251;SDS011;10284;58.364;15.550;2023-03-03T15:27:43;0.50;;;0.50;;
20251;SDS011;10284;58.364;15.550;2023-03-03T15:30:29;1.52;;;0.65;;
20251;SDS011;10284;58.364;15.550;2023-03-03T15:32:59;0.77;;;0.70;;
20251;SDS011;10284;58.364;15.550;2023-03-03T15:38:24;1.23;;;0.75;;
20251;SDS011;10284;58.364;15.550;2023-03-03T15:40:59;6.30;;;1.08;;
20251;SDS011;10284;58.364;15.550;2023-03-03T15:53:16;1.65;;;0.88;;
20251;SDS011;10284;58.364;15.550;2023-03-03T16:00:59;1.03;;;0.60;;
20251;SDS011;10284;58.364;15.550;2023-03-03T16:03:41;1.02;;;0.77;;
20251;SDS011;10284;58.364;15.550;2023-03-03T16:06:15;1.38;;;0.68;;
20251;SDS011;10284;58.364;15.550;2023-03-03T16:09:06;1.25;;;0.70;;
20251;SDS011;10284;58.364;15.550;2023-03-03T16:11:49;1.42;;;0.70;;
20251;SDS011;10284;58.364;15.550;2023-03-03T16:28:19;1.75;;;0.70;;
20251;SDS011;10284;58.364;15.550;2023-03-03T16:30:51;1.95;;;0.80;;
20251;SDS011;10284;58.364;15.550;2023-03-03T16:33:27;1.00;;;0.50;;
20251;SDS011;10284;58.364;15.550;2023-03-03T16:38:43;1.15;;;0.50;;
20251;SDS011;10284;58.364;15.550;2023-03-03T16:41:18;0.60;;;0.60;;
20251;SDS011;10284;58.364;15.550;2023-03-03T16:44:03;3.63;;;0.60;;
20251;SDS011;10284;58.364;15.550;2023-03-03T16:46:37;1.95;;;0.50;;
20251;SDS011;10284;58.364;15.550;2023-03-03T16:49:51;1.33;;;0.60;;
20251;SDS011;10284;58.364;15.550;2023-03-03T17:04:54;2.95;;;0.50;;
20251;SDS011;10284;58.364;15.550;2023-03-03T17:10:29;0.85;;;0.70;;
20251;SDS011;10284;58.364;15.550;2023-03-03T17:18:43;0.93;;;0.70;;
20251;SDS011;10284;58.364;15.550;2023-03-03T17:27:33;1.17;;;0.82;;
20251;SDS011;10284;58.364;15.550;2023-03-03T17:45:58;2.72;;;0.60;;
20251;SDS011;10284;58.364;15.550;2023-03-03T17:51:00;4.07;;;0.95;;
20251;SDS011;10284;58.364;15.550;2023-03-03T17:53:41;1.75;;;0.52;;
20251;SDS011;10284;58.364;15.550;2023-03-03T17:56:15;1.92;;;0.65;;
20251;SDS011;10284;58.364;15.550;2023-03-03T18:04:51;2.65;;;0.70;;
20251;SDS011;10284;58.364;15.550;2023-03-03T18:13:14;2.95;;;0.70;;
20251;SDS011;10284;58.364;15.550;2023-03-03T18:16:05;2.17;;;1.20;;
20251;SDS011;10284;58.364;15.550;2023-03-03T18:26:49;0.75;;;0.70;;
20251;SDS011;10284;58.364;15.550;2023-03-03T18:37:09;0.70;;;0.63;;
20251;SDS011;10284;58.364;15.550;2023-03-03T18:42:38;2.53;;;0.90;;
20251;SDS011;10284;58.364;15.550;2023-03-03T18:50:35;3.08;;;1.45;;
20251;SDS011;10284;58.364;15.550;2023-03-03T18:53:19;1.08;;;0.70;;
20251;SDS011;10284;58.364;15.550;2023-03-03T18:55:53;1.75;;;0.60;;
20251;SDS011;10284;58.364;15.550;2023-03-03T19:00:55;2.00;;;0.93;;
20251;SDS011;10284;58.364;15.550;2023-03-03T19:06:03;2.65;;;0.77;;
20251;SDS011;10284;58.364;15.550;2023-03-03T19:08:50;3.05;;;0.70;;
20251;SDS011;10284;58.364;15.550;2023-03-03T19:14:28;2.90;;;0.85;;
20251;SDS011;10284;58.364;15.550;2023-03-03T19:16:57;1.65;;;0.80;;
20251;SDS011;10284;58.364;15.550;2023-03-03T19:22:31;1.70;;;0.77;;
20251;SDS011;10284;58.364;15.550;2023-03-03T19:27:37;2.00;;;1.00;;
20251;SDS011;10284;58.364;15.550;2023-03-03T19:30:34;3.33;;;1.10;;
20251;SDS011;10284;58.364;15.550;2023-03-03T19:33:04;2.22;;;0.88;;
20251;SDS011;10284;58.364;15.550;2023-03-03T19:38:29;2.38;;;0.90;;
20251;SDS011;10284;58.364;15.550;2023-03-03T19:41:23;2.58;;;1.00;;
20251;SDS011;10284;58.364;15.550;2023-03-03T19:50:17;1.50;;;0.90;;
20251;SDS011;10284;58.364;15.550;2023-03-03T20:08:13;2.22;;;1.10;;
20251;SDS011;10284;58.364;15.550;2023-03-03T20:10:56;2.83;;;0.80;;
20251;SDS011;10284;58.364;15.550;2023-03-03T20:13:46;1.23;;;0.85;;
20251;SDS011;10284;58.364;15.550;2023-03-03T20:16:34;4.82;;;1.25;;
20251;SDS011;10284;58.364;15.550;2023-03-03T20:22:18;2.45;;;1.33;;
20251;SDS011;10284;58.364;15.550;2023-03-03T20:33:13;1.45;;;1.00;;
20251;SDS011;10284;58.364;15.550;2023-03-03T20:44:01;1.30;;;0.50;;
20251;SDS011;10284;58.364;15.550;2023-03-03T20:47:03;2.17;;;0.50;;
20251;SDS011;10284;58.364;15.550;2023-03-03T20:54:58;2.13;;;0.60;;
20251;SDS011;10284;58.364;15.550;2023-03-03T20:57:50;1.60;;;0.40;;
20251;SDS011;10284;58.364;15.550;2023-03-03T21:03:12;2.90;;;0.40;;
20251;SDS011;10284;58.364;15.550;2023-03-03T21:06:00;0.77;;;0.43;;
20251;SDS011;10284;58.364;15.550;2023-03-03T21:08:40;0.77;;;0.40;;
20251;SDS011;10284;58.364;15.550;2023-03-03T21:11:07;1.38;;;0.40;;
20251;SDS011;10284;58.364;15.550;2023-03-03T21:13:35;0.32;;;0.30;;
20251;SDS011;10284;58.364;15.550;2023-03-03T21:16:37;0.65;;;0.50;;
20251;SDS011;10284;58.364;15.550;2023-03-03T21:21:36;0.90;;;0.40;;
20251;SDS011;10284;58.364;15.550;2023-03-03T21:24:02;1.30;;;0.40;;
20251;SDS011;10284;58.364;15.550;2023-03-03T21:29:28;0.57;;;0.40;;
20251;SDS011;10284;58.364;15.550;2023-03-03T21:34:33;0.80;;;0.30;;